Bierbeek, Belgium
Current Conditions -  °F | °C
As of 10:25 PM on Sunday 25 Jan 2015 (Local Time) from EBBE Reporting Station
Overcast Overcast  
Wind Chill: 28°   Ceiling: 2100
Heat Index: 36°   Visibility: 4mi
Dew Point: 36°   Wind: 10mph
Humidity: 100%   Direction: 200°SSW
Pressure: 30.36"   Gusts: NA
Location:  50.83°N, 4.76°E
Report Text: EBBE 252125Z AUTO 20009KT 6000 SCT017/// BKN021/// OVC025/// 02/02 Q1028 WHT
Loading
Personal Weather Stations






























Interactive Weather Map New forecast layout! Learn more

10-Day Weather Forecast

Advertisements
Track Severe Weather on mobile